createdAt,value
2018-04-24T00:01:45.488Z,101083.57
2018-04-24T00:04:14.083Z,101079.27
2018-04-24T00:06:42.685Z,101077.63
2018-04-24T00:09:11.082Z,101083.30
2018-04-24T00:11:39.918Z,101079.31
2018-04-24T00:14:08.641Z,101077.83
2018-04-24T00:16:37.352Z,101078.30
2018-04-24T00:19:06.262Z,101075.82
2018-04-24T00:21:34.702Z,101084.00
2018-04-24T00:24:03.370Z,101082.16
2018-04-24T00:26:32.606Z,101068.94
2018-04-24T00:29:01.399Z,101070.67
2018-04-24T00:31:29.888Z,101075.03
2018-04-24T00:33:58.467Z,101078.61
2018-04-24T00:36:27.052Z,101083.61
2018-04-24T00:38:55.487Z,101080.52
2018-04-24T00:41:24.477Z,101087.84
2018-04-24T00:43:53.355Z,101090.00
2018-04-24T00:46:22.091Z,101088.41
2018-04-24T00:48:50.644Z,101080.69
2018-04-24T00:51:19.112Z,101088.89
2018-04-24T00:53:47.619Z,101088.66
2018-04-24T00:56:16.106Z,101083.03
2018-04-24T00:58:44.672Z,101090.66
2018-04-24T01:01:13.374Z,101083.63
2018-04-24T01:03:42.183Z,101083.58
2018-04-24T01:06:10.747Z,101079.64
2018-04-24T01:08:39.358Z,101085.46
2018-04-24T01:11:07.889Z,101088.88
2018-04-24T01:13:36.319Z,101090.34
2018-04-24T01:16:04.873Z,101100.66
2018-04-24T01:18:33.495Z,101105.98
2018-04-24T01:21:02.266Z,101111.02
2018-04-24T01:23:30.794Z,101108.11
2018-04-24T01:25:59.648Z,101106.95
2018-04-24T01:28:28.370Z,101113.66
2018-04-24T01:30:56.988Z,101109.48
2018-04-24T01:33:25.584Z,101104.92
2018-04-24T01:35:54.039Z,101107.70
2018-04-24T01:38:22.510Z,101103.27
2018-04-24T01:40:53.955Z,101093.91
2018-04-24T01:43:22.551Z,101102.31
2018-04-24T01:45:51.034Z,101112.98
2018-04-24T01:48:19.721Z,101114.83
2018-04-24T01:50:48.624Z,101116.41
2018-04-24T01:53:17.031Z,101123.44
2018-04-24T01:55:45.612Z,101128.96
2018-04-24T01:58:14.360Z,101120.25
2018-04-24T02:00:44.012Z,101115.83
2018-04-24T02:03:12.523Z,101111.70
2018-04-24T02:05:41.996Z,101108.64
2018-04-24T02:08:11.116Z,101105.88
2018-04-24T02:10:39.648Z,101108.83
2018-04-24T02:13:08.230Z,101125.88
2018-04-24T02:15:36.747Z,101125.56
2018-04-24T02:18:05.411Z,101129.78
2018-04-24T02:20:33.931Z,101136.81
2018-04-24T02:23:02.343Z,101129.95
2018-04-24T02:25:30.863Z,101126.73
2018-04-24T02:27:59.525Z,101126.34
2018-04-24T02:30:28.109Z,101125.01
2018-04-24T02:32:56.741Z,101123.81
2018-04-24T02:35:25.640Z,101127.08
2018-04-24T02:37:54.276Z,101134.38
2018-04-24T02:40:22.894Z,101138.66
2018-04-24T02:42:51.288Z,101143.59
2018-04-24T02:45:20.102Z,101133.31
2018-04-24T02:47:48.651Z,101122.37
2018-04-24T02:50:17.166Z,101129.77
2018-04-24T02:52:45.758Z,101118.09
2018-04-24T02:56:13.464Z,101116.69
2018-04-24T02:58:42.083Z,101133.28
2018-04-24T03:01:10.914Z,101112.30
2018-04-24T03:03:39.490Z,101111.27
2018-04-24T03:06:08.038Z,101126.27
2018-04-24T03:08:36.450Z,101110.61
2018-04-24T03:11:04.936Z,101105.91
2018-04-24T03:13:33.464Z,101113.90
2018-04-24T03:16:02.151Z,101110.44
2018-04-24T03:18:30.744Z,101092.02
2018-04-24T03:20:59.487Z,101092.48
2018-04-24T03:23:28.052Z,101087.08
2018-04-24T03:32:44.330Z,101080.94
2018-04-24T03:35:13.120Z,101084.84
2018-04-24T03:37:42.285Z,101084.55
2018-04-24T03:40:10.971Z,101087.91
2018-04-24T03:42:39.552Z,101086.29
2018-04-24T03:45:08.090Z,101089.54
2018-04-24T03:47:36.980Z,101091.20
2018-04-24T03:50:05.695Z,101095.44
2018-04-24T03:52:34.287Z,101099.42
2018-04-24T03:55:02.796Z,101093.84
2018-04-24T03:57:31.230Z,101093.45
2018-04-24T03:59:59.768Z,101096.45
2018-04-24T04:05:24.182Z,101079.48
2018-04-24T04:07:52.774Z,101072.85
2018-04-24T04:10:21.379Z,101066.70
2018-04-24T04:12:51.214Z,101072.88
2018-04-24T04:15:21.839Z,101083.16
2018-04-24T04:20:08.339Z,101076.46
2018-04-24T04:24:46.016Z,101076.45
2018-04-24T04:27:14.628Z,101080.95
2018-04-24T04:29:43.628Z,101075.45
2018-04-24T04:32:12.185Z,101081.05
2018-04-24T04:34:40.695Z,101088.70
2018-04-24T04:37:09.312Z,101083.33
2018-04-24T04:39:38.192Z,101077.52
2018-04-24T04:42:06.979Z,101069.12
2018-04-24T04:44:35.520Z,101070.08
2018-04-24T04:47:04.891Z,101074.98
2018-04-24T04:49:33.748Z,101079.41
2018-04-24T04:52:02.365Z,101069.26
2018-04-24T04:54:32.647Z,101072.76
2018-04-24T04:57:02.432Z,101068.64
2018-04-24T04:59:33.907Z,101059.42
2018-04-24T05:02:05.255Z,101065.97
2018-04-24T05:04:34.698Z,101055.23
2018-04-24T05:07:07.010Z,101056.74
2018-04-24T05:09:36.102Z,101054.75
2018-04-24T05:12:04.723Z,101055.47
2018-04-24T05:14:33.272Z,101058.92
2018-04-24T05:17:01.864Z,101074.28
2018-04-24T05:19:30.347Z,101062.26
2018-04-24T05:21:58.855Z,101037.41
2018-04-24T05:24:27.683Z,101032.58
2018-04-24T05:26:56.412Z,101045.47
2018-04-24T05:29:25.315Z,101048.48
2018-04-24T05:31:53.979Z,101044.60
2018-04-24T05:34:22.637Z,101049.59
2018-04-24T05:36:51.207Z,101059.31
2018-04-24T05:39:19.706Z,101062.25
2018-04-24T05:41:48.557Z,101056.91
2018-04-24T05:44:17.413Z,101059.48
2018-04-24T05:46:46.113Z,101042.31
2018-04-24T05:49:14.975Z,101050.20
2018-04-24T05:51:43.710Z,101062.78
2018-04-24T05:54:12.281Z,101060.55
2018-04-24T05:56:40.867Z,101055.03
2018-04-24T05:59:09.966Z,101053.08
2018-04-24T06:01:38.619Z,101061.16
2018-04-24T06:04:07.724Z,101047.31
2018-04-24T06:06:36.260Z,101025.42
2018-04-24T06:09:06.094Z,101026.95
2018-04-24T06:11:34.632Z,101026.39
2018-04-24T06:14:03.191Z,101032.51
2018-04-24T06:16:32.611Z,101024.98
2018-04-24T06:19:01.171Z,101031.86
2018-04-24T06:21:29.847Z,101042.84
2018-04-24T06:23:58.418Z,101049.80
2018-04-24T06:26:27.126Z,101050.92
2018-04-24T06:28:55.787Z,101049.34
2018-04-24T06:31:24.930Z,101047.69
2018-04-24T06:33:53.460Z,101035.84
2018-04-24T06:36:22.267Z,101026.80
2018-04-24T06:38:51.208Z,101016.77
2018-04-24T06:41:20.056Z,101018.89
2018-04-24T06:43:48.931Z,101028.09
2018-04-24T06:46:17.631Z,101032.70
2018-04-24T06:48:46.600Z,101039.00
2018-04-24T06:51:15.202Z,101037.16
2018-04-24T06:53:43.716Z,101035.69
2018-04-24T06:56:12.234Z,101033.48
2018-04-24T06:58:40.906Z,101035.33
2018-04-24T07:01:09.433Z,101021.07
2018-04-24T07:03:37.956Z,101019.78
2018-04-24T07:06:06.972Z,101020.58
2018-04-24T07:08:35.563Z,101031.56
2018-04-24T07:11:04.095Z,101021.03
2018-04-24T07:13:32.627Z,101010.39
2018-04-24T07:16:01.204Z,101020.34
2018-04-24T07:18:29.925Z,101009.29
2018-04-24T07:21:02.648Z,101006.63
2018-04-24T07:23:35.674Z,101009.00
2018-04-24T07:26:05.777Z,101003.02
2018-04-24T07:28:35.762Z,100995.73
2018-04-24T07:31:04.359Z,100993.25
2018-04-24T07:33:32.868Z,100990.78
2018-04-24T07:36:01.423Z,100986.81
2018-04-24T07:38:30.031Z,100979.59
2018-04-24T07:40:58.761Z,100983.91
2018-04-24T07:43:27.448Z,100981.43
2018-04-24T07:45:56.154Z,100995.38
2018-04-24T07:48:24.783Z,100993.99
2018-04-24T07:50:53.492Z,100982.14
2018-04-24T07:53:22.375Z,100987.02
2018-04-24T07:55:51.072Z,100984.84
2018-04-24T07:58:20.115Z,100978.98
2018-04-24T08:00:48.840Z,100982.89
2018-04-24T08:03:17.416Z,100974.35
2018-04-24T08:05:45.943Z,100977.98
2018-04-24T08:08:14.470Z,100969.45
2018-04-24T08:10:43.048Z,100961.96
2018-04-24T08:13:11.710Z,100968.09
2018-04-24T08:15:40.348Z,100952.19
2018-04-24T08:18:08.990Z,100951.55
2018-04-24T08:20:37.627Z,100944.48
2018-04-24T08:23:06.171Z,100947.06
2018-04-24T08:25:34.934Z,100950.97
2018-04-24T08:28:03.447Z,100939.29
2018-04-24T08:30:32.031Z,100949.41
2018-04-24T08:33:00.510Z,100950.48
2018-04-24T08:35:29.055Z,100945.80
2018-04-24T08:37:57.526Z,100953.31
2018-04-24T08:40:26.064Z,100951.00
2018-04-24T08:42:54.641Z,100947.45
2018-04-24T08:45:23.371Z,100956.73
2018-04-24T08:47:51.906Z,100946.20
2018-04-24T08:50:20.466Z,100953.05
2018-04-24T08:52:56.244Z,100947.12
2018-04-24T08:55:24.787Z,100958.38
2018-04-24T08:57:53.271Z,100961.86
2018-04-24T09:00:21.845Z,100968.07
2018-04-24T09:02:50.474Z,100970.29
2018-04-24T09:05:19.890Z,100967.09
2018-04-24T09:07:48.369Z,100956.18
2018-04-24T09:10:16.955Z,100960.85
2018-04-24T09:12:45.453Z,100961.57
2018-04-24T09:15:14.021Z,100968.32
2018-04-24T09:17:49.411Z,100971.13
2018-04-24T09:20:17.948Z,100959.48
2018-04-24T09:22:46.529Z,100962.92
2018-04-24T09:25:15.077Z,100968.03
2018-04-24T09:27:43.679Z,100950.14
2018-04-24T09:30:12.224Z,100957.27
2018-04-24T09:32:40.879Z,100959.97
2018-04-24T09:35:20.564Z,100957.68
2018-04-24T09:37:49.085Z,100954.21
2018-04-24T09:40:17.603Z,100952.86
2018-04-24T09:42:46.110Z,100955.31
2018-04-24T09:45:14.835Z,100948.93
2018-04-24T09:47:43.480Z,100961.69
2018-04-24T09:50:12.326Z,100965.30
2018-04-24T09:52:42.081Z,100966.92
2018-04-24T09:55:10.783Z,100969.69
2018-04-24T09:57:39.375Z,100973.25
2018-04-24T10:00:07.987Z,100979.80
2018-04-24T10:02:36.531Z,100976.87
2018-04-24T10:05:05.264Z,100973.64
2018-04-24T10:07:33.764Z,100986.47
2018-04-24T10:10:02.862Z,100986.69
2018-04-24T10:12:31.412Z,100981.06
2018-04-24T10:15:00.179Z,100987.62
2018-04-24T10:17:28.875Z,100987.80
2018-04-24T10:19:57.579Z,100990.80
2018-04-24T10:22:26.376Z,100993.85
2018-04-24T10:24:55.024Z,100994.25
2018-04-24T10:27:23.611Z,101000.72
2018-04-24T10:29:52.287Z,100998.45
2018-04-24T10:32:21.005Z,100995.78
2018-04-24T10:34:49.718Z,100992.88
2018-04-24T10:37:18.333Z,100984.48
2018-04-24T10:39:46.908Z,100980.80
2018-04-24T10:42:15.533Z,100973.62
2018-04-24T10:44:44.194Z,100983.66
2018-04-24T10:47:12.740Z,100990.28
2018-04-24T10:49:41.409Z,100983.73
2018-04-24T10:52:10.493Z,100977.66
2018-04-24T10:54:39.806Z,100972.30
2018-04-24T10:57:08.484Z,100981.80
2018-04-24T10:59:37.135Z,100973.98
2018-04-24T11:02:05.665Z,100980.80
2018-04-24T11:04:34.203Z,100983.48
2018-04-24T11:07:03.268Z,100968.20
2018-04-24T11:09:31.954Z,100979.75
2018-04-24T11:12:00.472Z,100979.61
2018-04-24T11:14:29.044Z,100985.02
2018-04-24T11:16:57.748Z,100994.88
2018-04-24T11:19:26.613Z,101003.84
2018-04-24T11:21:55.187Z,100998.56
2018-04-24T11:24:24.418Z,100989.53
2018-04-24T11:26:53.125Z,100992.42
2018-04-24T11:29:21.651Z,100992.86
2018-04-24T11:31:50.280Z,100991.05
2018-04-24T11:34:19.021Z,100996.83
2018-04-24T11:36:47.565Z,100993.03
2018-04-24T11:39:16.058Z,100994.62
2018-04-24T11:41:44.581Z,100990.23
2018-04-24T11:44:13.326Z,100989.84
2018-04-24T11:46:42.079Z,100996.24
2018-04-24T11:49:11.145Z,100989.83
2018-04-24T11:51:39.805Z,100995.16
2018-04-24T11:54:08.612Z,100991.14
2018-04-24T11:56:37.138Z,100990.13
2018-04-24T11:59:05.895Z,100995.14
2018-04-24T12:01:34.417Z,101001.81
2018-04-24T12:04:02.984Z,101000.30
2018-04-24T12:06:31.536Z,101007.80
2018-04-24T12:09:00.033Z,101004.21
2018-04-24T12:11:28.556Z,101005.76
2018-04-24T12:13:57.288Z,101020.18
2018-04-24T12:16:25.996Z,101012.70
2018-04-24T12:18:54.680Z,101018.19
2018-04-24T12:21:23.368Z,101024.12
2018-04-24T12:23:52.044Z,101016.30
2018-04-24T12:26:26.328Z,101022.41
2018-04-24T12:28:56.491Z,101019.81
2018-04-24T12:31:28.721Z,101017.74
2018-04-24T12:33:58.453Z,101014.00
2018-04-24T12:36:27.159Z,101028.09
2018-04-24T12:38:56.070Z,101026.32
2018-04-24T12:41:25.148Z,101017.80
2018-04-24T12:43:53.668Z,101015.16
2018-04-24T12:46:22.183Z,101005.88
2018-04-24T12:48:52.059Z,101008.45
2018-04-24T12:51:21.542Z,101012.70
2018-04-24T12:53:51.843Z,101005.69
2018-04-24T12:56:22.795Z,101011.08
2018-04-24T12:58:51.328Z,101013.18
2018-04-24T13:01:19.923Z,101005.76
2018-04-24T13:03:49.020Z,101005.88
2018-04-24T13:06:17.532Z,101004.53
2018-04-24T13:08:46.179Z,101005.98
2018-04-24T13:11:15.122Z,101006.59
2018-04-24T13:13:43.979Z,100999.92
2018-04-24T13:16:12.708Z,100992.50
2018-04-24T13:18:41.475Z,101006.95
2018-04-24T13:21:10.379Z,101000.75
2018-04-24T13:23:39.122Z,101010.53
2018-04-24T13:26:07.853Z,101007.80
2018-04-24T13:28:36.397Z,101004.59
2018-04-24T13:31:04.972Z,101006.84
2018-04-24T13:33:33.565Z,101008.98
2018-04-24T13:36:02.152Z,101003.39
2018-04-24T13:38:30.875Z,101005.67
2018-04-24T13:41:00.604Z,101010.83
2018-04-24T13:43:29.774Z,101017.36
2018-04-24T13:45:58.563Z,101017.55
2018-04-24T13:48:27.431Z,101012.91
2018-04-24T13:50:56.220Z,100990.70
2018-04-24T13:53:25.047Z,101001.36
2018-04-24T13:55:53.716Z,100991.53
2018-04-24T13:58:22.200Z,100993.07
2018-04-24T14:00:50.828Z,100993.78
2018-04-24T14:03:19.362Z,100982.57
2018-04-24T14:05:47.950Z,100973.30
2018-04-24T14:08:16.648Z,100963.71
2018-04-24T14:10:45.421Z,100968.39
2018-04-24T14:13:13.934Z,100970.16
2018-04-24T14:15:42.786Z,100978.38
2018-04-24T14:18:11.293Z,100972.72
2018-04-24T14:20:39.963Z,100971.66
2018-04-24T14:23:08.568Z,100980.98
2018-04-24T14:25:37.113Z,100975.34
2018-04-24T14:28:05.782Z,100975.34
2018-04-24T14:30:35.675Z,100981.70
2018-04-24T14:33:04.410Z,100982.49
2018-04-24T14:35:33.103Z,100977.78
2018-04-24T14:38:01.584Z,100971.23
2018-04-24T14:40:30.293Z,100970.92
2018-04-24T14:42:59.025Z,100981.58
2018-04-24T14:45:27.679Z,100976.11
2018-04-24T14:47:56.555Z,100986.31
2018-04-24T14:50:25.215Z,100976.05
2018-04-24T14:52:54.050Z,100980.21
2018-04-24T14:55:22.607Z,100973.64
2018-04-24T14:57:51.151Z,100975.06
2018-04-24T15:00:19.833Z,100966.92
2018-04-24T15:02:48.655Z,100965.24
2018-04-24T15:05:17.533Z,100957.85
2018-04-24T15:07:46.070Z,100959.71
2018-04-24T15:10:14.887Z,100958.55
2018-04-24T15:12:43.555Z,100963.38
2018-04-24T15:15:12.115Z,100961.20
2018-04-24T15:17:40.843Z,100966.01
2018-04-24T15:20:09.469Z,100972.98
2018-04-24T15:22:38.253Z,100969.67
2018-04-24T15:25:07.221Z,100968.04
2018-04-24T15:27:35.875Z,100977.43
2018-04-24T15:30:04.961Z,100969.09
2018-04-24T15:32:33.739Z,100968.59
2018-04-24T15:35:02.333Z,100968.61
2018-04-24T15:37:31.482Z,100976.31
2018-04-24T15:40:00.387Z,100978.77
2018-04-24T15:42:28.966Z,100974.12
2018-04-24T15:44:58.139Z,100976.54
2018-04-24T15:47:26.864Z,100968.53
2018-04-24T15:49:55.519Z,100970.03
2018-04-24T15:52:24.104Z,100963.05
2018-04-24T15:54:52.781Z,100966.94
2018-04-24T15:57:21.574Z,100962.64
2018-04-24T15:59:50.459Z,100963.81
2018-04-24T16:02:19.363Z,100972.28
2018-04-24T16:04:48.310Z,100966.91
2018-04-24T16:07:16.931Z,100960.96
2018-04-24T16:09:46.467Z,100966.06
2018-04-24T16:12:15.449Z,100970.88
2018-04-24T16:14:44.208Z,100960.77
2018-04-24T16:17:13.304Z,100970.55
2018-04-24T16:19:42.076Z,100975.97
2018-04-24T16:22:10.608Z,100971.72
2018-04-24T16:24:39.343Z,100971.94
2018-04-24T16:27:08.243Z,100967.69
2018-04-24T16:29:36.892Z,100964.23
2018-04-24T16:32:05.496Z,100960.64
2018-04-24T16:34:34.075Z,100963.86
2018-04-24T16:37:02.623Z,100958.44
2018-04-24T16:39:31.366Z,100964.48
2018-04-24T16:41:59.945Z,100953.06
2018-04-24T16:44:28.821Z,100960.54
2018-04-24T16:46:57.948Z,100952.78
2018-04-24T16:49:26.468Z,100951.00
2018-04-24T16:51:55.126Z,100956.80
2018-04-24T16:54:24.030Z,100960.80
2018-04-24T16:56:53.370Z,100963.50
2018-04-24T16:59:22.367Z,100961.97
2018-04-24T17:01:51.280Z,100954.34
2018-04-24T17:04:19.794Z,100954.70
2018-04-24T17:09:48.929Z,100945.77
2018-04-24T17:12:18.153Z,100954.69
2018-04-24T17:14:47.167Z,100951.27
2018-04-24T17:17:15.776Z,100953.62
2018-04-24T17:19:44.370Z,100950.84
2018-04-24T17:22:13.297Z,100954.02
2018-04-24T17:24:43.007Z,100940.80
2018-04-24T17:27:11.858Z,100955.00
2018-04-24T17:29:40.520Z,100950.22
2018-04-24T17:32:09.428Z,100945.25
2018-04-24T17:34:38.014Z,100947.14
2018-04-24T17:37:06.574Z,100935.80
2018-04-24T17:39:35.452Z,100932.24
2018-04-24T17:42:03.981Z,100930.81
2018-04-24T17:44:33.639Z,100926.47
2018-04-24T17:47:02.761Z,100925.98
2018-04-24T17:49:32.199Z,100933.16
2018-04-24T17:52:01.506Z,100934.66
2018-04-24T17:54:30.237Z,100937.85
2018-04-24T17:56:59.786Z,100936.44
2018-04-24T17:59:28.845Z,100941.34
2018-04-24T18:01:57.606Z,100937.59
2018-04-24T18:04:26.753Z,100932.69
2018-04-24T18:06:56.327Z,100935.18
2018-04-24T18:09:24.898Z,100937.19
2018-04-24T18:11:53.928Z,100933.08
2018-04-24T18:14:22.714Z,100937.95
2018-04-24T18:16:51.238Z,100932.20
2018-04-24T18:19:19.847Z,100937.38
2018-04-24T18:21:48.595Z,100941.79
2018-04-24T18:24:17.415Z,100939.36
2018-04-24T18:26:46.391Z,100940.03
2018-04-24T18:29:14.909Z,100943.35
2018-04-24T18:31:43.640Z,100937.23
2018-04-24T18:34:13.292Z,100932.66
2018-04-24T18:36:41.872Z,100936.13
2018-04-24T18:39:10.775Z,100931.91
2018-04-24T18:41:40.403Z,100937.53
2018-04-24T18:44:10.280Z,100933.28
2018-04-24T18:46:39.811Z,100927.95
2018-04-24T18:49:08.328Z,100932.64
2018-04-24T18:51:37.984Z,100925.15
2018-04-24T18:54:08.181Z,100930.69
2018-04-24T18:56:37.459Z,100932.75
2018-04-24T18:59:06.154Z,100926.34
2018-04-24T19:01:34.828Z,100925.78
2018-04-24T19:04:03.493Z,100929.10
2018-04-24T19:06:32.237Z,100930.24
2018-04-24T19:09:01.974Z,100925.59
2018-04-24T19:11:33.690Z,100925.12
2018-04-24T19:14:06.448Z,100923.86
2018-04-24T19:16:35.907Z,100922.05
2018-04-24T19:19:08.868Z,100921.27
2018-04-24T19:21:37.545Z,100920.77
2018-04-24T19:24:06.194Z,100918.98
2018-04-24T19:26:35.651Z,100927.48
2018-04-24T19:29:07.253Z,100921.22
2018-04-24T19:31:40.168Z,100917.30
2018-04-24T19:34:09.946Z,100925.88
2018-04-24T19:36:38.622Z,100919.15
2018-04-24T19:39:11.391Z,100914.61
2018-04-24T19:42:39.199Z,100912.25
2018-04-24T19:45:08.973Z,100918.80
2018-04-24T19:47:37.831Z,100911.52
2018-04-24T19:50:25.406Z,100915.95
2018-04-24T19:52:55.211Z,100900.89
2018-04-24T19:55:26.836Z,100908.96
2018-04-24T19:57:56.325Z,100909.44
2018-04-24T20:00:25.744Z,100906.06
2018-04-24T20:02:57.055Z,100899.22
2018-04-24T20:05:26.967Z,100888.92
2018-04-24T20:07:55.792Z,100886.25
2018-04-24T20:10:24.291Z,100887.54
2018-04-24T20:12:53.720Z,100876.16
2018-04-24T20:15:22.564Z,100880.20
2018-04-24T20:17:51.836Z,100879.61
2018-04-24T20:20:20.897Z,100872.41
2018-04-24T20:22:50.061Z,100874.34
2018-04-24T20:25:19.082Z,100871.16
2018-04-24T20:27:48.047Z,100862.55
2018-04-24T20:30:17.390Z,100867.97
2018-04-24T20:32:46.034Z,100869.16
2018-04-24T20:35:14.706Z,100864.09
2018-04-24T20:37:43.783Z,100857.87
2018-04-24T20:40:12.482Z,100852.75
2018-04-24T20:42:41.299Z,100851.87
2018-04-24T20:45:10.606Z,100858.74
2018-04-24T20:47:40.124Z,100854.67
2018-04-24T20:50:12.702Z,100854.26
2018-04-24T20:52:44.619Z,100851.69
2018-04-24T20:55:14.130Z,100855.77
2018-04-24T20:57:45.683Z,100847.77
2018-04-24T21:00:16.551Z,100847.77
2018-04-24T21:02:45.132Z,100851.17
2018-04-24T21:05:15.311Z,100843.80
2018-04-24T21:07:43.828Z,100847.66
2018-04-24T21:10:13.506Z,100841.08
2018-04-24T21:12:42.096Z,100846.52
2018-04-24T21:15:11.027Z,100847.66
2018-04-24T21:17:39.924Z,100839.35
2018-04-24T21:20:09.507Z,100832.53
2018-04-24T21:22:41.761Z,100832.30
2018-04-24T21:25:11.527Z,100827.55
2018-04-24T21:27:40.539Z,100822.41
2018-04-24T21:30:09.146Z,100823.50
2018-04-24T21:32:37.767Z,100817.58
2018-04-24T21:35:06.701Z,100818.78
2018-04-24T21:37:36.377Z,100816.87
2018-04-24T21:40:05.145Z,100819.45
2018-04-24T21:42:34.455Z,100818.31
2018-04-24T21:45:04.000Z,100815.25
2018-04-24T21:47:36.231Z,100820.30
2018-04-24T21:50:06.600Z,100814.69
2018-04-24T21:52:35.219Z,100812.55
2018-04-24T21:55:03.947Z,100797.98
2018-04-24T21:57:36.259Z,100806.41
2018-04-24T22:00:06.431Z,100805.95
2018-04-24T22:02:35.306Z,100793.36
2018-04-24T22:05:04.914Z,100791.83
2018-04-24T22:07:33.666Z,100778.00
2018-04-24T22:10:02.560Z,100784.41
2018-04-24T22:12:31.011Z,100777.36
2018-04-24T22:14:59.551Z,100776.01
2018-04-24T22:17:28.251Z,100764.80
2018-04-24T22:19:56.647Z,100759.41
2018-04-24T22:22:25.161Z,100766.13
2018-04-24T22:24:53.631Z,100767.38
2018-04-24T22:27:22.128Z,100761.34
2018-04-24T22:29:50.799Z,100756.97
2018-04-24T22:32:19.643Z,100758.25
2018-04-24T22:34:48.388Z,100751.86
2018-04-24T22:37:16.914Z,100761.59
2018-04-24T22:39:45.555Z,100758.98
2018-04-24T22:42:14.985Z,100752.66
2018-04-24T22:44:44.375Z,100760.42
2018-04-24T22:47:13.608Z,100752.10
2018-04-24T22:49:42.073Z,100739.71
2018-04-24T22:52:10.730Z,100733.33
2018-04-24T22:54:39.351Z,100736.38
2018-04-24T22:57:08.067Z,100724.16
2018-04-24T22:59:36.516Z,100720.07
2018-04-24T23:02:05.233Z,100720.67
2018-04-24T23:04:33.949Z,100720.12
2018-04-24T23:07:03.140Z,100714.78
2018-04-24T23:09:31.975Z,100717.08
2018-04-24T23:12:11.861Z,100718.09
2018-04-24T23:14:52.459Z,100710.91
2018-04-24T23:17:32.292Z,100718.69
2018-04-24T23:20:12.291Z,100727.19
2018-04-24T23:22:41.996Z,100712.26
2018-04-24T23:25:11.790Z,100706.48
2018-04-24T23:27:40.988Z,100708.50
2018-04-24T23:30:09.479Z,100703.62
2018-04-24T23:32:38.096Z,100693.45
2018-04-24T23:35:06.852Z,100691.44
2018-04-24T23:37:35.492Z,100684.05
2018-04-24T23:40:04.015Z,100684.41
2018-04-24T23:42:32.873Z,100681.01
2018-04-24T23:45:01.615Z,100683.91
2018-04-24T23:47:30.073Z,100683.78
2018-04-24T23:49:58.734Z,100678.66
2018-04-24T23:52:27.693Z,100677.14
2018-04-24T23:54:56.292Z,100682.26
2018-04-24T23:57:24.784Z,100672.23
2018-04-24T23:59:53.323Z,100666.78
